Time;durP1;ratioP1;P1;durP2;ratioP2;P2;SDS_P1;SDS_P2;PMS_P1;PMS_P2;Temp;Humidity;BMP_temperature;BMP_pressure;BME280_temperature;BME280_humidity;BME280_pressure;Samples;Min_cycle;Max_cycle;Signal;HPM_P1;HPM_P2
2022/11/28 00:02:54;;;;;;;42.53;39.60;;;;;;;;;;10231726;28;20541;-69
2022/11/28 00:07:50;;;;;;;46.22;42.70;;;;;;;;;;10233456;28;20041;-69
2022/11/28 00:12:47;;;;;;;42.00;38.92;;;;;;;;;;10231083;28;20057;-70
2022/11/28 00:17:44;;;;;;;45.85;42.38;;;;;;;;;;10239595;28;20100;-70
2022/11/28 00:22:40;;;;;;;42.60;39.65;;;;;;;;;;10239804;28;20050;-69
2022/11/28 00:27:36;;;;;;;42.83;39.65;;;;;;;;;;10231181;28;20039;-69
2022/11/28 00:32:32;;;;;;;40.90;37.85;;;;;;;;;;10231259;28;20085;-71
2022/11/28 00:37:29;;;;;;;38.08;35.25;;;;;;;;;;10244479;28;20140;-71
2022/11/28 00:42:25;;;;;;;39.30;36.25;;;;;;;;;;10232308;28;20592;-69
2022/11/28 00:47:21;;;;;;;37.88;35.00;;;;;;;;;;10243880;28;20037;-70
2022/11/28 00:52:17;;;;;;;36.42;33.72;;;;;;;;;;10230165;28;20047;-70
2022/11/28 00:57:14;;;;;;;33.03;30.73;;;;;;;;;;10232354;28;20049;-70
2022/11/28 01:02:10;;;;;;;33.83;31.20;;;;;;;;;;10243715;28;20048;-70
2022/11/28 01:07:06;;;;;;;34.25;31.70;;;;;;;;;;10229202;28;20076;-70
2022/11/28 01:12:03;;;;;;;33.58;30.95;;;;;;;;;;10230292;28;20057;-69
2022/11/28 01:16:59;;;;;;;34.67;31.98;;;;;;;;;;10229293;28;20390;-69
2022/11/28 01:21:55;;;;;;;33.05;30.27;;;;;;;;;;10236617;28;20057;-69
2022/11/28 01:26:52;;;;;;;33.10;30.27;;;;;;;;;;10228285;28;20045;-69
2022/11/28 01:31:48;;;;;;;30.70;28.15;;;;;;;;;;10228798;28;20048;-70
2022/11/28 01:36:45;;;;;;;29.88;27.67;;;;;;;;;;10234020;28;20099;-70
2022/11/28 01:41:41;;;;;;;30.23;27.52;;;;;;;;;;10220256;28;20053;-70
2022/11/28 01:46:37;;;;;;;29.17;26.77;;;;;;;;;;10228701;28;20413;-69
2022/11/28 01:51:34;;;;;;;28.55;26.42;;;;;;;;;;10228697;28;20489;-71
2022/11/28 01:56:37;;;;;;;28.33;26.13;;;;;;;;;;10224801;28;20128;-70
2022/11/28 02:07:20;;;;;;;32.65;30.25;;;;;;;;;;11057047;23;20687;-66
2022/11/28 02:12:35;;;;;;;33.33;30.85;;;;;;;;;;10182378;28;20048;-66
2022/11/28 02:17:34;;;;;;;33.70;31.23;;;;;;;;;;10180723;28;20044;-68
2022/11/28 02:22:33;;;;;;;34.15;31.55;;;;;;;;;;10187316;28;20042;-68
2022/11/28 02:27:48;;;;;;;36.45;33.92;;;;;;;;;;10197729;28;20042;-69
2022/11/28 02:32:57;;;;;;;39.03;36.53;;;;;;;;;;10194065;28;20412;-69
2022/11/28 02:38:02;;;;;;;40.40;37.53;;;;;;;;;;10188002;28;20124;-69
2022/11/28 02:43:02;;;;;;;40.28;37.60;;;;;;;;;;10198018;28;20052;-67
2022/11/28 02:48:02;;;;;;;43.90;40.90;;;;;;;;;;10181444;28;20044;-67
2022/11/28 02:53:09;;;;;;;42.67;39.83;;;;;;;;;;10173395;28;20045;-70
2022/11/28 02:58:05;;;;;;;43.70;40.45;;;;;;;;;;10183660;28;20053;-69
2022/11/28 03:03:04;;;;;;;45.35;42.15;;;;;;;;;;10197778;28;20061;-67
2022/11/28 03:08:28;;;;;;;44.85;41.92;;;;;;;;;;10190564;28;20046;-66
2022/11/28 03:13:36;;;;;;;44.90;41.63;;;;;;;;;;10196436;28;20125;-66
2022/11/28 03:18:40;;;;;;;39.70;36.85;;;;;;;;;;10199149;28;20046;-69
2022/11/28 03:23:58;;;;;;;41.60;38.70;;;;;;;;;;10223261;28;20453;-68
2022/11/28 03:28:55;;;;;;;38.08;35.38;;;;;;;;;;10190641;28;20052;-67
2022/11/28 03:33:53;;;;;;;36.90;33.88;;;;;;;;;;10197196;28;20056;-66
2022/11/28 03:38:53;;;;;;;32.83;30.30;;;;;;;;;;10202787;28;20997;-67
2022/11/28 03:43:51;;;;;;;27.95;25.98;;;;;;;;;;10195256;28;20181;-67
2022/11/28 03:48:50;;;;;;;27.27;24.88;;;;;;;;;;10203904;28;20057;-67
2022/11/28 03:53:59;;;;;;;26.30;24.10;;;;;;;;;;10203929;28;20046;-66
2022/11/28 03:58:59;;;;;;;25.73;23.55;;;;;;;;;;10186617;28;20042;-68
2022/11/28 04:04:14;;;;;;;24.25;22.45;;;;;;;;;;10185537;28;20046;-68
2022/11/28 04:09:17;;;;;;;24.83;22.67;;;;;;;;;;10194625;28;20507;-68
2022/11/28 04:14:22;;;;;;;25.05;23.15;;;;;;;;;;10189166;28;20057;-68
2022/11/28 04:19:19;;;;;;;26.63;24.10;;;;;;;;;;10175141;28;20100;-68
2022/11/28 04:24:18;;;;;;;27.10;24.90;;;;;;;;;;10193226;28;20068;-69
2022/11/28 04:29:16;;;;;;;26.30;24.33;;;;;;;;;;10189679;28;20042;-67
2022/11/28 04:34:15;;;;;;;26.08;24.13;;;;;;;;;;10181822;28;20042;-68
2022/11/28 04:39:15;;;;;;;27.23;25.15;;;;;;;;;;10180985;28;20046;-68
2022/11/28 04:44:35;;;;;;;27.17;25.08;;;;;;;;;;10179054;28;20045;-68
2022/11/28 04:49:32;;;;;;;27.33;25.20;;;;;;;;;;10176933;28;20382;-71
2022/11/28 04:54:37;;;;;;;29.58;26.98;;;;;;;;;;10208657;28;20546;-71
2022/11/28 04:59:33;;;;;;;27.67;25.50;;;;;;;;;;10181735;28;20395;-74
2022/11/28 05:04:33;;;;;;;29.15;26.73;;;;;;;;;;10171139;28;20486;-73
2022/11/28 05:09:29;;;;;;;29.20;26.67;;;;;;;;;;10165726;28;20586;-72
2022/11/28 05:14:25;;;;;;;28.48;26.08;;;;;;;;;;10167311;28;20507;-73
2022/11/28 05:19:22;;;;;;;30.00;27.63;;;;;;;;;;10171317;28;20064;-73
2022/11/28 05:24:18;;;;;;;28.38;25.90;;;;;;;;;;10182300;28;20391;-72
2022/11/28 05:29:15;;;;;;;26.67;24.77;;;;;;;;;;10182030;28;20046;-71
2022/11/28 05:34:11;;;;;;;25.08;22.88;;;;;;;;;;10187469;28;20061;-71
2022/11/28 05:39:07;;;;;;;25.65;23.75;;;;;;;;;;10182588;28;20057;-71
2022/11/28 05:44:03;;;;;;;28.20;25.80;;;;;;;;;;10191655;28;20060;-71
2022/11/28 05:49:00;;;;;;;28.27;26.02;;;;;;;;;;10189078;28;20041;-71
2022/11/28 05:53:56;;;;;;;31.05;28.27;;;;;;;;;;10198568;28;20048;-71
2022/11/28 05:58:53;;;;;;;29.80;27.50;;;;;;;;;;10194767;28;20065;-70
2022/11/28 06:03:50;;;;;;;30.67;28.20;;;;;;;;;;10187264;28;20435;-70
2022/11/28 06:08:47;;;;;;;31.33;29.02;;;;;;;;;;10188046;28;20053;-70
2022/11/28 06:13:45;;;;;;;31.15;28.63;;;;;;;;;;10188790;28;20225;-71
2022/11/28 06:18:41;;;;;;;31.58;29.27;;;;;;;;;;10182791;28;20517;-70
2022/11/28 06:23:37;;;;;;;32.80;30.25;;;;;;;;;;10180714;28;20042;-71
2022/11/28 06:28:34;;;;;;;30.45;27.98;;;;;;;;;;10187958;28;20132;-71
2022/11/28 06:33:30;;;;;;;30.35;27.83;;;;;;;;;;10190157;28;20045;-71
2022/11/28 06:38:27;;;;;;;31.17;28.67;;;;;;;;;;10183495;28;20046;-70
2022/11/28 06:43:23;;;;;;;31.02;28.63;;;;;;;;;;10199568;28;20049;-71
2022/11/28 06:48:20;;;;;;;30.88;28.27;;;;;;;;;;10188285;28;20136;-71
2022/11/28 06:53:16;;;;;;;29.75;27.50;;;;;;;;;;10188579;28;20044;-71
2022/11/28 06:58:13;;;;;;;30.38;28.08;;;;;;;;;;10185322;28;20045;-70
2022/11/28 07:03:09;;;;;;;29.25;26.73;;;;;;;;;;10185121;28;20050;-71
2022/11/28 07:08:05;;;;;;;28.80;26.50;;;;;;;;;;10189745;28;20042;-70
2022/11/28 07:13:02;;;;;;;29.10;26.73;;;;;;;;;;10196340;28;20053;-70
2022/11/28 07:18:01;;;;;;;28.17;25.83;;;;;;;;;;10193490;28;20581;-70
2022/11/28 07:22:57;;;;;;;26.40;24.35;;;;;;;;;;10192598;28;20069;-70
2022/11/28 07:27:53;;;;;;;27.90;25.20;;;;;;;;;;10198542;28;20071;-70
2022/11/28 07:32:49;;;;;;;29.58;26.58;;;;;;;;;;10195622;28;20061;-70
2022/11/28 07:37:46;;;;;;;28.52;25.83;;;;;;;;;;10191987;28;20050;-70
2022/11/28 07:42:42;;;;;;;28.17;25.65;;;;;;;;;;10194361;28;20133;-70
2022/11/28 07:47:38;;;;;;;27.42;24.80;;;;;;;;;;10195192;28;20069;-70
2022/11/28 07:52:35;;;;;;;28.25;25.63;;;;;;;;;;10186426;28;20121;-70
2022/11/28 07:57:31;;;;;;;25.75;23.55;;;;;;;;;;10190266;28;20042;-69
2022/11/28 08:02:31;;;;;;;24.92;22.70;;;;;;;;;;10191807;28;20053;-70
2022/11/28 08:07:27;;;;;;;26.63;24.08;;;;;;;;;;10201594;28;20046;-70
2022/11/28 08:12:23;;;;;;;26.83;24.13;;;;;;;;;;10188468;28;20042;-70
2022/11/28 08:17:20;;;;;;;26.25;23.95;;;;;;;;;;10188306;28;20082;-70
2022/11/28 08:22:16;;;;;;;26.75;24.48;;;;;;;;;;10203089;28;20612;-70
2022/11/28 08:27:12;;;;;;;28.83;23.70;;;;;;;;;;10194499;28;20049;-71
2022/11/28 08:32:08;;;;;;;25.25;22.95;;;;;;;;;;10193290;28;20647;-70
2022/11/28 08:37:04;;;;;;;24.00;21.90;;;;;;;;;;10198163;28;20049;-70
2022/11/28 08:42:01;;;;;;;25.70;23.35;;;;;;;;;;10187986;28;20137;-70
2022/11/28 08:46:57;;;;;;;27.30;24.48;;;;;;;;;;10188300;28;20065;-70
2022/11/28 08:51:53;;;;;;;24.73;22.27;;;;;;;;;;10187674;28;20424;-70
2022/11/28 08:56:50;;;;;;;24.55;21.55;;;;;;;;;;10190695;28;20054;-71
2022/11/28 09:01:46;;;;;;;23.65;21.27;;;;;;;;;;10183002;28;20533;-71
2022/11/28 09:06:42;;;;;;;24.73;20.95;;;;;;;;;;10203189;28;20107;-71
2022/11/28 09:11:38;;;;;;;22.42;20.02;;;;;;;;;;10198106;28;20057;-71
2022/11/28 09:16:36;;;;;;;22.70;20.50;;;;;;;;;;10188940;28;20042;-71
2022/11/28 09:21:32;;;;;;;23.20;20.80;;;;;;;;;;10198684;28;20037;-71
2022/11/28 09:26:29;;;;;;;25.30;20.70;;;;;;;;;;10188956;28;20714;-71
2022/11/28 09:31:26;;;;;;;22.85;20.45;;;;;;;;;;10175172;28;20526;-71
2022/11/28 09:36:23;;;;;;;22.35;20.13;;;;;;;;;;10182994;28;20057;-71
2022/11/28 09:41:28;;;;;;;23.35;20.90;;;;;;;;;;10187926;28;20050;-71
2022/11/28 09:46:26;;;;;;;22.50;20.20;;;;;;;;;;10185805;28;20053;-70
2022/11/28 09:51:44;;;;;;;24.27;21.30;;;;;;;;;;10183210;28;20437;-71
2022/11/28 09:56:40;;;;;;;22.40;20.13;;;;;;;;;;10188202;28;20049;-70
2022/11/28 10:01:43;;;;;;;22.02;19.30;;;;;;;;;;10188007;28;20137;-71
2022/11/28 10:06:44;;;;;;;22.38;19.83;;;;;;;;;;10181052;28;20461;-70
2022/11/28 10:11:41;;;;;;;20.40;18.40;;;;;;;;;;10190404;28;20060;-71
2022/11/28 10:16:45;;;;;;;20.58;18.55;;;;;;;;;;10186362;28;20081;-70
2022/11/28 10:21:46;;;;;;;23.05;20.02;;;;;;;;;;10194946;28;20050;-71
2022/11/28 10:26:47;;;;;;;22.17;19.92;;;;;;;;;;10184866;28;20058;-71
2022/11/28 10:31:44;;;;;;;21.15;18.88;;;;;;;;;;10195085;28;20128;-71
2022/11/28 10:36:43;;;;;;;21.23;19.13;;;;;;;;;;10187042;28;20616;-71
2022/11/28 10:41:45;;;;;;;22.55;18.88;;;;;;;;;;10187365;28;20056;-71
2022/11/28 10:47:05;;;;;;;20.00;17.90;;;;;;;;;;10195246;28;20060;-70
2022/11/28 10:52:07;;;;;;;20.27;18.38;;;;;;;;;;10191424;28;20042;-71
2022/11/28 10:57:12;;;;;;;21.40;19.15;;;;;;;;;;10191140;28;20132;-70
2022/11/28 11:02:26;;;;;;;20.60;18.33;;;;;;;;;;10184050;28;20042;-71
2022/11/28 11:07:27;;;;;;;20.02;17.88;;;;;;;;;;10206727;28;20121;-71
2022/11/28 11:12:29;;;;;;;21.08;18.88;;;;;;;;;;10189746;28;20042;-70
2022/11/28 11:17:32;;;;;;;20.88;18.75;;;;;;;;;;10188068;28;20044;-70
2022/11/28 11:22:31;;;;;;;19.17;17.42;;;;;;;;;;10187232;28;20576;-71
2022/11/28 11:27:28;;;;;;;21.58;18.65;;;;;;;;;;10195635;28;20049;-70
2022/11/28 11:32:28;;;;;;;23.02;18.60;;;;;;;;;;10196058;28;20532;-70
2022/11/28 11:37:32;;;;;;;21.98;19.63;;;;;;;;;;10190270;28;20126;-70
2022/11/28 11:42:30;;;;;;;22.23;19.92;;;;;;;;;;10187249;28;20045;-71
2022/11/28 11:47:40;;;;;;;24.23;21.58;;;;;;;;;;10192419;28;20050;-71
2022/11/28 11:52:36;;;;;;;23.25;20.77;;;;;;;;;;10188356;28;20058;-71
2022/11/28 11:57:35;;;;;;;27.73;25.17;;;;;;;;;;10190430;28;20034;-71
2022/11/28 12:02:34;;;;;;;27.38;24.65;;;;;;;;;;10187195;28;20502;-71
2022/11/28 12:07:35;;;;;;;28.58;25.92;;;;;;;;;;10188984;28;20056;-71
2022/11/28 12:12:34;;;;;;;28.40;25.83;;;;;;;;;;10195767;28;20046;-71
2022/11/28 12:17:40;;;;;;;28.83;26.33;;;;;;;;;;10203744;28;20042;-71
2022/11/28 12:22:45;;;;;;;32.03;29.08;;;;;;;;;;10188095;28;20077;-71
2022/11/28 12:27:48;;;;;;;33.03;30.15;;;;;;;;;;10208132;28;20077;-71
2022/11/28 12:32:44;;;;;;;34.67;31.70;;;;;;;;;;10195621;28;20058;-70
2022/11/28 12:37:48;;;;;;;35.03;31.75;;;;;;;;;;10190652;28;20137;-70
2022/11/28 12:43:23;;;;;;;39.30;36.00;;;;;;;;;;10186512;28;20520;-71
2022/11/28 12:48:29;;;;;;;40.08;36.55;;;;;;;;;;10189997;28;20069;-71
2022/11/28 12:53:44;;;;;;;42.40;38.25;;;;;;;;;;10193245;28;20191;-71
2022/11/28 12:58:59;;;;;;;42.88;39.53;;;;;;;;;;10182103;28;20046;-72
2022/11/28 13:03:58;;;;;;;46.17;42.78;;;;;;;;;;10190221;28;20682;-71
2022/11/28 13:09:09;;;;;;;44.50;41.40;;;;;;;;;;10197091;28;20793;-72
2022/11/28 13:14:13;;;;;;;47.65;44.08;;;;;;;;;;10220772;28;20056;-71
2022/11/28 13:19:19;;;;;;;49.28;45.63;;;;;;;;;;10186713;28;20125;-71
2022/11/28 13:24:33;;;;;;;48.40;44.65;;;;;;;;;;10207367;28;20409;-72
2022/11/28 13:29:47;;;;;;;46.88;43.42;;;;;;;;;;10192706;28;20683;-71
2022/11/28 13:34:44;;;;;;;49.75;46.30;;;;;;;;;;10199820;28;20429;-71
2022/11/28 13:39:46;;;;;;;51.83;47.72;;;;;;;;;;10195390;28;20141;-71
2022/11/28 13:44:52;;;;;;;52.88;48.72;;;;;;;;;;10218374;28;20045;-71
2022/11/28 13:49:48;;;;;;;60.63;55.42;;;;;;;;;;10204475;28;20057;-71
2022/11/28 13:54:47;;;;;;;60.83;56.30;;;;;;;;;;10208685;28;20046;-71
2022/11/28 13:59:53;;;;;;;63.08;58.45;;;;;;;;;;10196022;28;20048;-71
2022/11/28 14:04:50;;;;;;;63.40;58.80;;;;;;;;;;10201536;28;20417;-71
2022/11/28 14:09:56;;;;;;;67.13;62.35;;;;;;;;;;10191775;28;20630;-71
2022/11/28 14:14:55;;;;;;;66.88;61.97;;;;;;;;;;10185600;28;20045;-71
2022/11/28 14:20:10;;;;;;;68.75;63.80;;;;;;;;;;10195281;28;20502;-71
2022/11/28 14:25:06;;;;;;;69.68;64.70;;;;;;;;;;10192787;28;20050;-70
2022/11/28 14:30:03;;;;;;;68.47;63.65;;;;;;;;;;10201891;28;20138;-70
2022/11/28 14:35:00;;;;;;;72.25;66.93;;;;;;;;;;10188047;28;20069;-71
2022/11/28 14:39:56;;;;;;;68.50;63.53;;;;;;;;;;10201952;28;20051;-71
2022/11/28 14:45:00;;;;;;;70.40;65.53;;;;;;;;;;10204728;28;20153;-71
2022/11/28 14:50:03;;;;;;;69.53;64.45;;;;;;;;;;10196907;28;20038;-71
2022/11/28 14:55:02;;;;;;;75.03;69.55;;;;;;;;;;10195208;28;20504;-71
2022/11/28 15:00:02;;;;;;;70.78;65.38;;;;;;;;;;10196787;28;20221;-71
2022/11/28 15:04:59;;;;;;;74.20;68.63;;;;;;;;;;10193868;28;20100;-71
2022/11/28 15:09:55;;;;;;;78.32;72.40;;;;;;;;;;10187602;28;20076;-71
2022/11/28 15:14:54;;;;;;;77.50;72.07;;;;;;;;;;10180170;28;20517;-71
2022/11/28 15:19:50;;;;;;;76.45;70.75;;;;;;;;;;10186338;28;20054;-71
2022/11/28 15:24:50;;;;;;;74.45;69.20;;;;;;;;;;10190159;28;20055;-71
2022/11/28 15:29:54;;;;;;;74.43;69.15;;;;;;;;;;10194903;28;20769;-71
2022/11/28 15:35:01;;;;;;;79.22;73.72;;;;;;;;;;10205960;28;20049;-71
2022/11/28 15:40:05;;;;;;;78.18;72.55;;;;;;;;;;10204972;28;20096;-71
2022/11/28 15:45:03;;;;;;;79.88;74.03;;;;;;;;;;10198509;28;20662;-71
2022/11/28 15:50:00;;;;;;;80.55;74.78;;;;;;;;;;10206767;28;20049;-71
2022/11/28 15:54:56;;;;;;;79.70;73.93;;;;;;;;;;10207252;28;20457;-71
2022/11/28 15:59:53;;;;;;;83.55;77.18;;;;;;;;;;10206805;28;20041;-71
2022/11/28 16:04:52;;;;;;;82.55;76.55;;;;;;;;;;10211811;28;20052;-71
2022/11/28 16:09:52;;;;;;;83.63;77.57;;;;;;;;;;10196634;28;20065;-71
2022/11/28 16:14:50;;;;;;;94.47;87.72;;;;;;;;;;10192385;28;20402;-71
2022/11/28 16:19:49;;;;;;;89.18;82.53;;;;;;;;;;10196840;28;20095;-71
2022/11/28 16:24:46;;;;;;;88.85;82.28;;;;;;;;;;10203364;28;20046;-71
2022/11/28 16:29:43;;;;;;;87.40;81.00;;;;;;;;;;10202551;28;20104;-71
2022/11/28 16:34:44;;;;;;;86.43;80.15;;;;;;;;;;10203165;28;20125;-71
2022/11/28 16:39:41;;;;;;;86.20;79.80;;;;;;;;;;10203752;28;20133;-71
2022/11/28 16:44:37;;;;;;;84.07;78.07;;;;;;;;;;10194739;28;20038;-71
2022/11/28 16:49:35;;;;;;;80.47;74.60;;;;;;;;;;10213875;28;20521;-71
2022/11/28 16:54:31;;;;;;;81.40;75.45;;;;;;;;;;10204115;28;20450;-71
2022/11/28 16:59:27;;;;;;;84.93;79.00;;;;;;;;;;10171395;28;20441;-72
2022/11/28 17:04:25;;;;;;;80.70;74.88;;;;;;;;;;10195052;28;20420;-72
2022/11/28 17:09:21;;;;;;;81.70;75.57;;;;;;;;;;10175923;28;20052;-71
2022/11/28 17:14:18;;;;;;;80.10;74.10;;;;;;;;;;10191599;28;20220;-71
2022/11/28 17:19:15;;;;;;;82.07;76.07;;;;;;;;;;10199353;28;20042;-71
2022/11/28 17:24:16;;;;;;;79.90;73.97;;;;;;;;;;10178389;28;20420;-71
2022/11/28 17:29:13;;;;;;;84.68;78.55;;;;;;;;;;10193609;28;20049;-71
2022/11/28 17:34:20;;;;;;;82.70;76.22;;;;;;;;;;10197568;28;20074;-71
2022/11/28 17:39:17;;;;;;;84.85;78.50;;;;;;;;;;10198129;28;20409;-71
2022/11/28 17:44:17;;;;;;;87.70;81.07;;;;;;;;;;10166804;28;20047;-71
2022/11/28 17:49:13;;;;;;;85.65;79.30;;;;;;;;;;10189875;28;20074;-71
2022/11/28 17:54:11;;;;;;;89.57;82.97;;;;;;;;;;10196743;28;20548;-71
2022/11/28 17:59:10;;;;;;;87.03;80.45;;;;;;;;;;10199694;28;20279;-71
2022/11/28 18:04:06;;;;;;;89.03;82.68;;;;;;;;;;10206924;28;20141;-71
2022/11/28 18:09:03;;;;;;;85.32;78.80;;;;;;;;;;10203841;28;20049;-71
2022/11/28 18:14:07;;;;;;;88.35;82.18;;;;;;;;;;10206744;28;20140;-71
2022/11/28 18:19:04;;;;;;;94.65;88.05;;;;;;;;;;10203540;28;20069;-71
2022/11/28 18:24:00;;;;;;;93.05;86.45;;;;;;;;;;10194356;28;20572;-71
2022/11/28 18:28:56;;;;;;;91.80;85.60;;;;;;;;;;10208527;28;20045;-71
2022/11/28 18:33:53;;;;;;;86.43;79.82;;;;;;;;;;10204537;28;20046;-71
2022/11/28 18:38:57;;;;;;;82.10;76.18;;;;;;;;;;10215718;28;20648;-71
2022/11/28 18:43:57;;;;;;;88.10;81.82;;;;;;;;;;10200462;28;20049;-71
2022/11/28 18:48:54;;;;;;;85.32;79.18;;;;;;;;;;10205997;28;20527;-71
2022/11/28 18:53:51;;;;;;;84.82;78.45;;;;;;;;;;10194755;28;20137;-71
2022/11/28 18:58:50;;;;;;;87.15;80.65;;;;;;;;;;10195558;28;20046;-71
2022/11/28 19:03:54;;;;;;;90.28;83.70;;;;;;;;;;10191592;28;20121;-71
2022/11/28 19:08:54;;;;;;;91.03;84.32;;;;;;;;;;10196205;28;20049;-71
2022/11/28 19:13:52;;;;;;;89.20;83.15;;;;;;;;;;10204140;28;20051;-71
2022/11/28 19:18:48;;;;;;;88.90;82.35;;;;;;;;;;10224313;28;20042;-71
2022/11/28 19:23:46;;;;;;;90.32;83.82;;;;;;;;;;10202921;28;20163;-71
2022/11/28 19:28:42;;;;;;;95.43;88.95;;;;;;;;;;10199283;28;20042;-71
2022/11/28 19:33:38;;;;;;;91.93;85.60;;;;;;;;;;10207950;28;20037;-71
2022/11/28 19:38:35;;;;;;;94.25;87.85;;;;;;;;;;10198764;28;20130;-71
2022/11/28 19:43:32;;;;;;;95.15;88.68;;;;;;;;;;10201734;28;20052;-71
2022/11/28 19:48:29;;;;;;;92.05;85.63;;;;;;;;;;10212889;28;20041;-71
2022/11/28 19:53:27;;;;;;;88.53;82.30;;;;;;;;;;10197180;28;20124;-71
2022/11/28 19:58:23;;;;;;;85.40;79.32;;;;;;;;;;10192056;28;20602;-71
2022/11/28 20:03:19;;;;;;;82.72;76.82;;;;;;;;;;10194604;28;20125;-71
2022/11/28 20:08:16;;;;;;;89.80;83.53;;;;;;;;;;10204451;28;20073;-71
2022/11/28 20:13:12;;;;;;;89.80;83.55;;;;;;;;;;10199881;28;20129;-71
2022/11/28 20:18:08;;;;;;;91.13;84.55;;;;;;;;;;10197149;28;20817;-71
2022/11/28 20:23:04;;;;;;;90.22;83.88;;;;;;;;;;10203143;28;20485;-71
2022/11/28 20:28:01;;;;;;;91.35;85.00;;;;;;;;;;10200573;28;20115;-71
2022/11/28 20:32:57;;;;;;;85.40;79.57;;;;;;;;;;10208780;28;20037;-71
2022/11/28 20:37:53;;;;;;;91.30;84.97;;;;;;;;;;10202930;28;20784;-71
2022/11/28 20:42:49;;;;;;;93.43;87.05;;;;;;;;;;10194841;28;20498;-71
2022/11/28 20:47:46;;;;;;;88.57;82.30;;;;;;;;;;10198557;28;20054;-71
2022/11/28 20:52:45;;;;;;;93.40;86.90;;;;;;;;;;10200868;28;20088;-70
2022/11/28 20:57:41;;;;;;;90.18;84.03;;;;;;;;;;10195468;28;20071;-70
2022/11/28 21:02:37;;;;;;;86.95;80.85;;;;;;;;;;10201096;28;20041;-71
2022/11/28 21:07:34;;;;;;;88.05;81.43;;;;;;;;;;10183130;28;20145;-71
2022/11/28 21:12:30;;;;;;;88.32;82.28;;;;;;;;;;10201542;28;20125;-72
2022/11/28 21:17:26;;;;;;;87.35;81.28;;;;;;;;;;10184014;28;20492;-68
2022/11/28 21:22:23;;;;;;;87.75;81.22;;;;;;;;;;10184968;28;20047;-66
2022/11/28 21:27:19;;;;;;;81.57;75.88;;;;;;;;;;10182655;28;20420;-67
2022/11/28 21:32:16;;;;;;;90.57;84.10;;;;;;;;;;10193957;28;20049;-71
2022/11/28 21:37:12;;;;;;;87.72;81.60;;;;;;;;;;10189074;28;20585;-71
2022/11/28 21:42:09;;;;;;;85.05;79.05;;;;;;;;;;10209781;28;20052;-71
2022/11/28 21:47:06;;;;;;;89.43;82.85;;;;;;;;;;10203704;28;20041;-71
2022/11/28 21:52:04;;;;;;;87.63;81.53;;;;;;;;;;10193374;28;20046;-71
2022/11/28 21:57:01;;;;;;;89.65;83.45;;;;;;;;;;10176872;28;20042;-71
2022/11/28 22:01:57;;;;;;;91.28;84.88;;;;;;;;;;10166972;28;20122;-71
2022/11/28 22:06:54;;;;;;;90.38;84.13;;;;;;;;;;10174041;28;20042;-71
2022/11/28 22:11:50;;;;;;;93.45;86.90;;;;;;;;;;10171937;28;20749;-71
2022/11/28 22:16:46;;;;;;;87.32;80.90;;;;;;;;;;10168877;28;20050;-71
2022/11/28 22:21:43;;;;;;;87.25;81.13;;;;;;;;;;10182726;28;20506;-71
2022/11/28 22:26:49;;;;;;;88.05;82.05;;;;;;;;;;10179114;28;20097;-70
2022/11/28 22:31:45;;;;;;;90.93;84.72;;;;;;;;;;10182156;28;20054;-70
2022/11/28 22:36:41;;;;;;;90.07;83.05;;;;;;;;;;10187857;28;20220;-69
2022/11/28 22:41:38;;;;;;;93.20;86.53;;;;;;;;;;10204911;28;20050;-70
2022/11/28 22:46:34;;;;;;;96.05;89.07;;;;;;;;;;10205366;28;20045;-70
2022/11/28 22:51:30;;;;;;;97.57;91.00;;;;;;;;;;10201720;28;20042;-70
2022/11/28 22:56:27;;;;;;;99.25;92.45;;;;;;;;;;10204145;28;20644;-70
2022/11/28 23:01:25;;;;;;;92.20;85.90;;;;;;;;;;10201515;28;20565;-70
2022/11/28 23:06:23;;;;;;;94.82;88.05;;;;;;;;;;10203891;28;20044;-70
2022/11/28 23:11:21;;;;;;;96.43;89.50;;;;;;;;;;10197046;28;20052;-70
2022/11/28 23:16:17;;;;;;;94.63;87.72;;;;;;;;;;10196220;28;20409;-70
2022/11/28 23:21:14;;;;;;;99.97;92.82;;;;;;;;;;10192583;28;20386;-70
2022/11/28 23:26:15;;;;;;;100.10;92.72;;;;;;;;;;10202039;28;20041;-68
2022/11/28 23:31:11;;;;;;;103.80;96.25;;;;;;;;;;10200504;28;20045;-70
2022/11/28 23:36:15;;;;;;;102.40;94.95;;;;;;;;;;10195482;28;20073;-71
2022/11/28 23:41:12;;;;;;;94.70;88.13;;;;;;;;;;10194974;28;20042;-72
2022/11/28 23:46:09;;;;;;;95.97;88.93;;;;;;;;;;10193120;28;20048;-69
2022/11/28 23:51:06;;;;;;;97.25;90.18;;;;;;;;;;10192685;28;20053;-70
2022/11/28 23:56:04;;;;;;;98.13;91.20;;;;;;;;;;10190825;28;20110;-69
